Terminal Aerodrome Forecast
Issued by NWS

Home | Current Version | Previous Version | Text Only | Print | Product List | Glossary On
Versions: 1 2 3 4 5 6 7 8 9 10 11 12
000
FTAK31 PAJN 050500
TAFAJN
TAF
PAJN 050520Z 0506/0606 10012KT P6SM -RA SCT025 OVC040
     FM050900 09006KT 5SM -RA BR BKN025 OVC040
     FM051800 VRB03KT 5SM -RA BR BKN015 OVC025
     FM060000 VRB04KT P6SM VCSH SCT015 BKN035 OVC050=

USA.gov is the U.S. government's official web portal to all federal, state and local government web resources and services.